createdAt,value
2022-12-28T00:01:46.845Z,98625.41
2022-12-28T00:06:50.867Z,98628.91
2022-12-28T00:11:53.279Z,98660.41
2022-12-28T00:16:55.578Z,98554.03
2022-12-28T00:21:57.929Z,98440.28
2022-12-28T00:27:00.159Z,98634.25
2022-12-28T00:32:02.501Z,98637.38
2022-12-28T00:37:09.180Z,98613.06
2022-12-28T00:42:20.361Z,98606.19
2022-12-28T00:47:22.822Z,98627.31
2022-12-28T00:52:25.096Z,98618.47
2022-12-28T00:57:27.683Z,98612.69
2022-12-28T01:02:31.182Z,98622.34
2022-12-28T01:07:33.603Z,98565.84
2022-12-28T01:12:38.451Z,98580.84
2022-12-28T01:17:41.013Z,98542.53
2022-12-28T01:22:43.239Z,98582.69
2022-12-28T01:27:45.455Z,98510.66
2022-12-28T01:32:47.657Z,98571.91
2022-12-28T01:37:50.062Z,98517.41
2022-12-28T01:42:52.313Z,98585.75
2022-12-28T01:47:55.375Z,98516.97
2022-12-28T01:53:02.142Z,98553.47
2022-12-28T01:58:18.592Z,98585.31
2022-12-28T02:03:23.989Z,98538.97
2022-12-28T02:08:59.099Z,98623.63
2022-12-28T02:14:05.403Z,98573.00
2022-12-28T02:19:10.174Z,98560.13
2022-12-28T02:25:11.531Z,98612.06
2022-12-28T02:30:15.158Z,98584.00
2022-12-28T02:35:20.353Z,98616.53
2022-12-28T02:40:36.178Z,98613.97
2022-12-28T02:46:04.984Z,98555.56
2022-12-28T02:51:38.751Z,98608.03
2022-12-28T02:56:56.358Z,98536.38
2022-12-28T03:02:21.853Z,98604.69
2022-12-28T03:08:20.488Z,98506.00
2022-12-28T03:13:45.357Z,98543.44
2022-12-28T03:19:20.901Z,98602.97
2022-12-28T03:24:42.422Z,98538.31
2022-12-28T03:30:22.946Z,98553.09
2022-12-28T03:35:45.582Z,98594.19
2022-12-28T03:40:50.086Z,98486.84
2022-12-28T03:46:21.070Z,98565.47
2022-12-28T03:51:25.403Z,98542.84
2022-12-28T03:56:29.789Z,98490.72
2022-12-28T04:01:36.008Z,98483.84
2022-12-28T04:06:38.828Z,98558.59
2022-12-28T04:11:41.199Z,98465.41
2022-12-28T04:16:48.962Z,98539.81
2022-12-28T04:21:53.130Z,98439.59
2022-12-28T04:26:55.886Z,98542.28
2022-12-28T04:31:58.150Z,98478.81
2022-12-28T04:37:01.083Z,98442.22
2022-12-28T04:42:03.337Z,98472.81
2022-12-28T04:47:05.719Z,98526.03
2022-12-28T04:52:08.387Z,98534.66
2022-12-28T04:57:10.759Z,98488.38
2022-12-28T05:02:13.036Z,98491.03
2022-12-28T05:07:15.332Z,98524.59
2022-12-28T05:12:17.576Z,98540.38
2022-12-28T05:17:19.848Z,98522.09
2022-12-28T05:22:22.148Z,98516.06
2022-12-28T05:27:24.458Z,98550.84
2022-12-28T05:32:26.680Z,98578.75
2022-12-28T05:37:29.075Z,98491.69
2022-12-28T05:42:32.376Z,98557.72
2022-12-28T05:47:34.724Z,98525.47
2022-12-28T05:52:38.621Z,98509.00
2022-12-28T05:57:41.226Z,98534.13
2022-12-28T06:02:43.933Z,98552.38
2022-12-28T06:07:46.241Z,98507.78
2022-12-28T06:12:48.605Z,98394.13
2022-12-28T06:17:53.880Z,98542.75
2022-12-28T06:22:57.164Z,98597.47
2022-12-28T06:27:59.528Z,98550.44
2022-12-28T06:33:02.313Z,98475.34
2022-12-28T06:38:04.638Z,98561.75
2022-12-28T06:43:07.105Z,98585.16
2022-12-28T06:48:11.124Z,98593.75
2022-12-28T06:53:14.476Z,98559.25
2022-12-28T06:58:17.085Z,98382.13
2022-12-28T07:03:19.639Z,98518.88
2022-12-28T07:08:21.893Z,98455.22
2022-12-28T07:13:28.144Z,98614.69
2022-12-28T07:18:31.089Z,98568.47
2022-12-28T07:23:33.874Z,98500.38
2022-12-28T07:28:40.646Z,98351.47
2022-12-28T07:33:43.756Z,98619.88
2022-12-28T07:38:46.570Z,98571.94
2022-12-28T07:43:50.512Z,98543.41
2022-12-28T07:48:53.489Z,98609.72
2022-12-28T07:53:58.348Z,98607.16
2022-12-28T07:59:04.379Z,98565.34
2022-12-28T08:04:11.140Z,98458.88
2022-12-28T08:09:14.687Z,98419.72
2022-12-28T08:14:17.001Z,98492.19
2022-12-28T08:19:20.116Z,98612.50
2022-12-28T08:24:22.716Z,98545.47
2022-12-28T08:29:25.123Z,98539.84
2022-12-28T08:34:27.578Z,98545.19
2022-12-28T08:39:29.858Z,98551.44
2022-12-28T08:44:32.112Z,98546.13
2022-12-28T08:49:34.354Z,98465.97
2022-12-28T08:54:37.457Z,98574.19
2022-12-28T08:59:39.687Z,98498.44
2022-12-28T09:04:42.368Z,98500.13
2022-12-28T09:09:44.825Z,98499.22
2022-12-28T09:14:48.241Z,98541.09
2022-12-28T09:19:52.463Z,98617.94
2022-12-28T09:24:55.406Z,98574.69
2022-12-28T09:30:03.679Z,98579.47
2022-12-28T09:35:07.426Z,98453.84
2022-12-28T09:40:10.319Z,98544.78
2022-12-28T09:45:12.898Z,98546.59
2022-12-28T09:50:22.751Z,98612.28
2022-12-28T09:55:25.345Z,98605.19
2022-12-28T10:00:52.845Z,98549.41
2022-12-28T10:05:58.045Z,98563.50
2022-12-28T10:11:02.510Z,98629.72
2022-12-28T10:16:15.865Z,98566.16
2022-12-28T10:21:20.589Z,98542.53
2022-12-28T10:26:23.133Z,98527.72
2022-12-28T10:31:39.659Z,98611.53
2022-12-28T10:36:42.720Z,98633.75
2022-12-28T10:41:45.827Z,98608.69
2022-12-28T10:47:01.250Z,98581.78
2022-12-28T10:52:15.629Z,98652.22
2022-12-28T10:57:38.028Z,98597.19
2022-12-28T11:02:40.690Z,98612.72
2022-12-28T11:07:45.773Z,98664.94
2022-12-28T11:12:47.992Z,98576.78
2022-12-28T11:17:56.524Z,98600.34
2022-12-28T11:22:59.030Z,98643.06
2022-12-28T11:28:06.560Z,98659.69
2022-12-28T11:33:29.387Z,98515.88
2022-12-28T11:38:58.537Z,98664.97
2022-12-28T11:44:04.779Z,98604.38
2022-12-28T11:49:30.281Z,98669.91
2022-12-28T11:54:50.583Z,98674.13
2022-12-28T11:59:52.809Z,98580.31
2022-12-28T12:04:55.619Z,98606.34
2022-12-28T12:10:34.277Z,98655.50
2022-12-28T12:15:43.366Z,98675.66
2022-12-28T12:20:51.028Z,98682.69
2022-12-28T12:25:54.611Z,98658.66
2022-12-28T12:30:57.147Z,98683.03
2022-12-28T12:36:10.535Z,98683.69
2022-12-28T12:41:15.623Z,98724.75
2022-12-28T12:46:43.359Z,98736.72
2022-12-28T12:52:04.057Z,98746.06
2022-12-28T12:57:19.737Z,98753.66
2022-12-28T13:02:26.086Z,98751.72
2022-12-28T13:07:28.689Z,98657.84
2022-12-28T13:12:33.442Z,98677.97
2022-12-28T13:17:36.137Z,98702.22
2022-12-28T13:22:43.119Z,98737.78
2022-12-28T13:27:45.353Z,98706.16
2022-12-28T13:32:52.950Z,98781.28
2022-12-28T13:38:10.155Z,98780.47
2022-12-28T13:43:43.531Z,98780.59
2022-12-28T13:48:51.158Z,98682.34
2022-12-28T13:53:58.290Z,98719.59
2022-12-28T13:59:04.351Z,98728.16
2022-12-28T14:09:44.578Z,98769.63
2022-12-28T14:14:50.081Z,98786.31
2022-12-28T14:19:52.976Z,98765.19
2022-12-28T14:25:02.821Z,98731.09
2022-12-28T14:30:09.102Z,98744.00
2022-12-28T14:35:21.637Z,98789.19
2022-12-28T14:40:28.711Z,98817.72
2022-12-28T14:46:07.406Z,98817.22
2022-12-28T14:51:17.513Z,98812.91
2022-12-28T14:56:20.239Z,98768.97
2022-12-28T15:01:25.772Z,98813.69
2022-12-28T15:06:31.051Z,98779.53
2022-12-28T15:11:33.322Z,98709.38
2022-12-28T15:16:35.675Z,98761.63
2022-12-28T15:21:37.960Z,98771.41
2022-12-28T15:26:40.188Z,98814.88
2022-12-28T15:31:42.470Z,98767.50
2022-12-28T15:36:45.808Z,98848.72
2022-12-28T15:41:48.157Z,98851.22
2022-12-28T15:46:50.918Z,98819.63
2022-12-28T15:51:53.356Z,98788.97
2022-12-28T15:56:56.769Z,98818.38
2022-12-28T16:01:59.435Z,98843.19
2022-12-28T16:07:02.218Z,98878.59
2022-12-28T16:12:04.942Z,98786.22
2022-12-28T16:17:07.153Z,98790.72
2022-12-28T16:22:09.701Z,98821.19
2022-12-28T16:27:12.059Z,98826.31
2022-12-28T16:32:14.285Z,98894.84
2022-12-28T16:37:17.131Z,98869.66
2022-12-28T16:42:19.373Z,98822.44
2022-12-28T16:47:21.602Z,98889.66
2022-12-28T16:52:23.819Z,98830.91
2022-12-28T16:57:26.715Z,98835.31
2022-12-28T17:02:29.265Z,98783.84
2022-12-28T17:07:31.740Z,98771.03
2022-12-28T17:12:34.205Z,98881.13
2022-12-28T17:17:36.493Z,98751.38
2022-12-28T17:22:39.314Z,98800.97
2022-12-28T17:27:41.732Z,98858.81
2022-12-28T17:32:45.526Z,98709.47
2022-12-28T17:37:47.960Z,98810.66
2022-12-28T17:42:50.337Z,98835.03
2022-12-28T17:47:52.660Z,98884.75
2022-12-28T17:52:54.941Z,98833.91
2022-12-28T17:57:57.453Z,98863.00
2022-12-28T18:02:59.861Z,98871.53
2022-12-28T18:08:02.418Z,98891.31
2022-12-28T18:13:04.830Z,98889.59
2022-12-28T18:18:07.933Z,98900.19
2022-12-28T18:23:11.176Z,98896.53
2022-12-28T18:28:14.266Z,98839.06
2022-12-28T18:33:16.524Z,98875.84
2022-12-28T18:38:21.254Z,98866.13
2022-12-28T18:43:24.073Z,98893.56
2022-12-28T18:48:27.495Z,98811.97
2022-12-28T18:53:31.051Z,98876.75
2022-12-28T18:58:35.870Z,98896.75
2022-12-28T19:03:39.110Z,98888.03
2022-12-28T19:08:41.788Z,98867.03
2022-12-28T19:13:44.208Z,98841.69
2022-12-28T19:18:46.644Z,98904.53
2022-12-28T19:23:56.014Z,98904.69
2022-12-28T19:28:58.537Z,98925.72
2022-12-28T19:34:00.799Z,98818.06
2022-12-28T19:39:03.467Z,98838.41
2022-12-28T19:44:08.248Z,98856.78
2022-12-28T19:49:10.814Z,98934.38
2022-12-28T19:54:13.258Z,98903.72
2022-12-28T19:59:15.612Z,98919.44
2022-12-28T20:04:17.852Z,98909.03
2022-12-28T20:09:20.131Z,98901.97
2022-12-28T20:14:25.205Z,98912.50
2022-12-28T20:19:27.878Z,98936.16
2022-12-28T20:24:30.172Z,98964.25
2022-12-28T20:29:32.865Z,98896.00
2022-12-28T20:34:35.265Z,98921.22
2022-12-28T20:39:38.267Z,98909.00
2022-12-28T20:44:40.535Z,98950.06
2022-12-28T20:49:42.880Z,98936.78
2022-12-28T20:54:45.228Z,98934.38
2022-12-28T20:59:47.510Z,98971.13
2022-12-28T21:04:49.779Z,98934.41
2022-12-28T21:09:52.223Z,98958.69
2022-12-28T21:14:54.540Z,98844.31
2022-12-28T21:19:56.769Z,98923.69
2022-12-28T21:24:59.010Z,98963.31
2022-12-28T21:30:01.240Z,98956.19
2022-12-28T21:35:04.247Z,98947.22
2022-12-28T21:40:09.010Z,98991.19
2022-12-28T21:45:11.754Z,98993.09
2022-12-28T21:50:14.129Z,98949.88
2022-12-28T21:55:34.684Z,98986.56
2022-12-28T22:00:55.433Z,98988.41
2022-12-28T22:06:02.915Z,98991.81
2022-12-28T22:11:23.727Z,98988.94
2022-12-28T22:16:26.089Z,98969.31
2022-12-28T22:21:29.316Z,99013.06
2022-12-28T22:26:31.506Z,98900.19
2022-12-28T22:31:33.720Z,98960.69
2022-12-28T22:36:36.164Z,98957.75
2022-12-28T22:41:38.451Z,98997.13
2022-12-28T22:46:40.774Z,99007.66
2022-12-28T22:51:43.198Z,98990.06
2022-12-28T22:56:45.652Z,98840.53
2022-12-28T23:01:48.544Z,99008.91
2022-12-28T23:06:51.265Z,99028.19
2022-12-28T23:11:53.492Z,98962.78
2022-12-28T23:16:56.744Z,99014.84
2022-12-28T23:22:17.464Z,99049.31
2022-12-28T23:27:22.516Z,99058.44
2022-12-28T23:32:24.847Z,99021.97
2022-12-28T23:37:27.061Z,99015.91
2022-12-28T23:42:29.250Z,99011.91
2022-12-28T23:47:31.605Z,99021.16
2022-12-28T23:52:33.926Z,99045.19
2022-12-28T23:57:36.265Z,98992.69
